Time;durP1;ratioP1;P1;durP2;ratioP2;P2;SDS_P1;SDS_P2;PMS_P1;PMS_P2;Temp;Humidity;BMP_temperature;BMP_pressure;BME280_temperature;BME280_humidity;BME280_pressure;Samples;Min_cycle;Max_cycle;Signal;HPM_P1;HPM_P2
2022/04/01 00:00:24;;;;;;;6.30;5.23;;;6.50;99.90;;;;;;5033457;28;20222;-65
2022/04/01 00:02:51;;;;;;;7.30;5.10;;;6.40;99.90;;;;;;5034234;28;20622;-66
2022/04/01 00:05:18;;;;;;;5.20;4.43;;;6.30;99.90;;;;;;5034169;28;20213;-64
2022/04/01 00:07:45;;;;;;;6.03;5.10;;;6.30;99.90;;;;;;5033578;28;20288;-65
2022/04/01 00:10:12;;;;;;;5.60;4.93;;;6.30;99.90;;;;;;5033223;28;20245;-66
2022/04/01 00:12:44;;;;;;;7.60;5.40;;;6.40;99.90;;;;;;5035995;28;20264;-65
2022/04/01 00:15:13;;;;;;;7.40;6.27;;;6.60;99.90;;;;;;5033710;28;20284;-65
2022/04/01 00:17:40;;;;;;;8.33;6.53;;;6.70;99.90;;;;;;5033185;28;20202;-66
2022/04/01 00:20:07;;;;;;;7.43;6.23;;;6.60;99.90;;;;;;5033059;28;20230;-65
2022/04/01 00:22:34;;;;;;;7.43;6.23;;;6.60;99.90;;;;;;5032983;28;20214;-65
2022/04/01 00:25:00;;;;;;;9.20;7.03;;;6.70;99.90;;;;;;5033002;28;20209;-65
2022/04/01 00:27:27;;;;;;;8.30;6.70;;;6.60;99.90;;;;;;5032481;28;20206;-66
2022/04/01 00:29:55;;;;;;;8.77;7.27;;;6.60;99.90;;;;;;5032164;28;20740;-65
2022/04/01 00:32:22;;;;;;;8.73;7.13;;;6.60;99.90;;;;;;5032686;28;20233;-65
2022/04/01 00:34:49;;;;;;;9.57;7.30;;;6.50;99.90;;;;;;5032496;28;20256;-65
2022/04/01 00:37:16;;;;;;;10.20;8.07;;;6.50;99.90;;;;;;5032276;28;20298;-66
2022/04/01 00:39:43;;;;;;;9.23;7.53;;;6.60;99.90;;;;;;5032174;28;20226;-66
2022/04/01 00:42:11;;;;;;;7.87;7.03;;;6.60;99.90;;;;;;5032003;28;20210;-66
2022/04/01 00:44:39;;;;;;;9.83;7.43;;;6.50;99.90;;;;;;5032516;28;20205;-65
2022/04/01 00:47:09;;;;;;;8.97;7.43;;;6.40;99.90;;;;;;5032291;28;20754;-66
2022/04/01 00:49:37;;;;;;;8.83;7.47;;;6.40;99.90;;;;;;5032261;28;20238;-66
2022/04/01 00:52:05;;;;;;;9.53;8.37;;;6.50;99.90;;;;;;5032158;28;20205;-65
2022/04/01 00:54:32;;;;;;;11.17;8.20;;;6.50;99.90;;;;;;5031232;28;20613;-65
2022/04/01 00:56:59;;;;;;;11.93;9.27;;;6.60;99.90;;;;;;5032166;28;20235;-66
2022/04/01 00:59:26;;;;;;;12.33;9.43;;;6.80;99.90;;;;;;5032356;28;20324;-66
2022/04/01 01:01:53;;;;;;;12.37;9.80;;;6.80;99.90;;;;;;5035626;28;20258;-65
2022/04/01 01:04:22;;;;;;;10.87;9.07;;;6.70;99.90;;;;;;5035342;28;20264;-65
2022/04/01 01:06:50;;;;;;;9.47;8.10;;;6.70;99.90;;;;;;5035651;28;20260;-64
2022/04/01 01:09:17;;;;;;;11.10;8.10;;;6.60;99.90;;;;;;5039769;28;20252;-64
2022/04/01 01:11:45;;;;;;;9.63;8.23;;;6.50;99.90;;;;;;5040401;28;20210;-64
2022/04/01 01:14:14;;;;;;;9.17;7.97;;;6.50;99.90;;;;;;5040768;28;20202;-64
2022/04/01 01:16:44;;;;;;;10.57;8.00;;;6.50;99.90;;;;;;5036435;28;20225;-64
2022/04/01 01:19:12;;;;;;;8.33;7.30;;;6.60;99.90;;;;;;5035115;28;20226;-65
2022/04/01 01:21:41;;;;;;;10.33;7.97;;;6.60;99.90;;;;;;5033050;28;20210;-65
2022/04/01 01:24:11;;;;;;;8.13;7.30;;;6.60;99.90;;;;;;5033020;28;20210;-65
2022/04/01 01:26:40;;;;;;;9.00;7.77;;;6.50;99.90;;;;;;5032346;28;20289;-65
2022/04/01 01:29:07;;;;;;;9.47;7.53;;;6.50;99.90;;;;;;5032128;28;20735;-65
2022/04/01 01:31:34;;;;;;;8.43;7.03;;;6.40;99.90;;;;;;5032241;28;20260;-65
2022/04/01 01:34:09;;;;;;;7.77;6.97;;;6.40;99.90;;;;;;5032102;28;20202;-66
2022/04/01 01:36:35;;;;;;;8.13;7.03;;;6.40;99.90;;;;;;5031935;28;20226;-66
2022/04/01 01:39:02;;;;;;;7.87;6.77;;;6.40;99.90;;;;;;5032303;28;20272;-66
2022/04/01 01:41:29;;;;;;;7.60;6.80;;;6.30;99.90;;;;;;5032159;28;20211;-65
2022/04/01 01:43:57;;;;;;;7.03;6.33;;;6.20;99.90;;;;;;5031825;28;20233;-65
2022/04/01 01:46:24;;;;;;;8.10;6.70;;;6.30;99.90;;;;;;5031732;28;20206;-66
2022/04/01 01:48:51;;;;;;;7.47;6.27;;;6.40;99.90;;;;;;5031446;28;20317;-66
2022/04/01 01:56:47;;;;;;;6.10;5.50;;;6.30;99.90;;;;;;5031968;28;20237;-66
2022/04/01 01:59:15;;;;;;;5.60;5.00;;;6.30;99.90;;;;;;5031872;28;20300;-64
2022/04/01 02:01:42;;;;;;;5.83;5.23;;;6.40;99.90;;;;;;5032842;28;20674;-64
2022/04/01 02:04:10;;;;;;;5.70;5.10;;;6.30;99.90;;;;;;5032016;28;20671;-65
2022/04/01 02:06:37;;;;;;;6.63;5.03;;;6.20;99.90;;;;;;5034763;28;20206;-66
2022/04/01 02:09:04;;;;;;;6.67;5.87;;;6.20;99.90;;;;;;5035166;28;20231;-64
2022/04/01 02:11:31;;;;;;;6.53;5.73;;;6.20;99.90;;;;;;5035950;28;20207;-65
2022/04/01 02:13:58;;;;;;;7.70;6.00;;;6.20;99.90;;;;;;5035235;28;20202;-65
2022/04/01 02:16:26;;;;;;;7.67;6.87;;;6.20;99.90;;;;;;5035386;28;20236;-65
2022/04/01 02:18:53;;;;;;;7.80;7.00;;;6.20;99.90;;;;;;5035194;28;20640;-64
2022/04/01 02:21:20;;;;;;;8.00;7.17;;;6.10;99.90;;;;;;5034662;28;20206;-65
2022/04/01 02:23:48;;;;;;;7.57;6.50;;;6.10;99.90;;;;;;5034751;28;20701;-65
2022/04/01 02:26:15;;;;;;;7.47;6.67;;;6.20;99.90;;;;;;5034820;28;20578;-65
2022/04/01 02:28:43;;;;;;;7.33;6.53;;;6.00;99.90;;;;;;5035314;28;20210;-65
2022/04/01 02:31:11;;;;;;;7.23;6.33;;;5.90;99.90;;;;;;5044532;28;20202;-65
2022/04/01 02:33:40;;;;;;;6.63;5.90;;;5.90;99.90;;;;;;5043813;28;20210;-65
2022/04/01 02:36:10;;;;;;;7.77;6.80;;;6.00;99.90;;;;;;5034781;28;20284;-65
2022/04/01 02:38:38;;;;;;;7.13;6.40;;;6.10;99.90;;;;;;5034444;28;20209;-65
2022/04/01 02:41:06;;;;;;;6.60;5.90;;;6.20;99.90;;;;;;5034620;28;20726;-65
2022/04/01 02:43:34;;;;;;;6.93;5.63;;;6.10;99.90;;;;;;5034433;28;20745;-65
2022/04/01 02:46:01;;;;;;;5.90;5.30;;;6.10;99.90;;;;;;5034384;28;20276;-65
2022/04/01 02:48:28;;;;;;;6.43;5.63;;;6.20;99.90;;;;;;5034266;28;20359;-65
2022/04/01 02:50:56;;;;;;;6.43;5.73;;;6.20;99.90;;;;;;5034097;28;20681;-65
2022/04/01 02:53:22;;;;;;;6.57;5.80;;;6.30;99.90;;;;;;5034087;28;20234;-64
2022/04/01 02:55:50;;;;;;;7.30;6.23;;;6.60;99.90;;;;;;5034143;28;20256;-65
2022/04/01 02:58:17;;;;;;;6.77;5.87;;;6.80;99.90;;;;;;5034190;28;20229;-65
2022/04/01 03:00:43;;;;;;;6.70;6.00;;;6.90;99.90;;;;;;5033800;28;20280;-65
2022/04/01 03:03:10;;;;;;;7.03;6.07;;;7.00;99.90;;;;;;5034025;28;20293;-65
2022/04/01 03:05:38;;;;;;;5.93;5.33;;;7.10;99.90;;;;;;5034018;28;20678;-65
2022/04/01 03:08:07;;;;;;;7.30;6.03;;;6.90;99.90;;;;;;5034057;28;20581;-64
2022/04/01 03:10:34;;;;;;;5.63;5.03;;;6.60;99.90;;;;;;5034113;28;20234;-65
2022/04/01 03:13:01;;;;;;;5.50;4.90;;;6.40;99.90;;;;;;5034499;28;20210;-65
2022/04/01 03:15:28;;;;;;;6.00;5.17;;;6.10;99.90;;;;;;5034396;28;20631;-65
2022/04/01 03:17:55;;;;;;;5.27;4.70;;;6.00;99.90;;;;;;5033290;28;20317;-65
2022/04/01 03:20:22;;;;;;;5.20;4.70;;;6.00;99.90;;;;;;5033660;28;20226;-65
2022/04/01 03:22:50;;;;;;;5.90;5.30;;;5.90;99.90;;;;;;5034142;28;20666;-65
2022/04/01 03:25:20;;;;;;;5.90;5.20;;;5.80;99.90;;;;;;5034399;28;20203;-65
2022/04/01 03:27:47;;;;;;;5.70;5.10;;;5.70;99.90;;;;;;5034530;28;20202;-65
2022/04/01 03:30:14;;;;;;;5.50;5.00;;;5.90;99.90;;;;;;5033592;28;20226;-65
2022/04/01 03:32:42;;;;;;;5.67;5.07;;;5.90;99.90;;;;;;5033949;28;20260;-65
2022/04/01 03:35:10;;;;;;;5.07;4.57;;;5.90;99.90;;;;;;5033992;28;20222;-65
2022/04/01 03:37:37;;;;;;;5.13;4.63;;;5.90;99.90;;;;;;5033789;28;20729;-65
2022/04/01 03:40:04;;;;;;;5.10;4.60;;;5.90;99.90;;;;;;5033921;28;20226;-65
2022/04/01 03:42:33;;;;;;;6.47;5.33;;;5.80;99.90;;;;;;5033293;28;20697;-65
2022/04/01 03:45:01;;;;;;;5.80;5.00;;;5.80;99.90;;;;;;5033988;28;20214;-65
2022/04/01 03:47:35;;;;;;;4.93;4.37;;;5.80;99.90;;;;;;5033522;28;20206;-65
2022/04/01 03:50:04;;;;;;;4.77;4.33;;;6.00;99.90;;;;;;5033730;28;20321;-65
2022/04/01 03:52:33;;;;;;;4.47;4.07;;;5.90;99.90;;;;;;5033917;28;20210;-65
2022/04/01 03:55:04;;;;;;;4.80;4.30;;;5.80;99.90;;;;;;5034340;28;20737;-65
2022/04/01 03:57:36;;;;;;;5.23;4.60;;;5.70;99.90;;;;;;5036854;28;20228;-65
2022/04/01 04:00:04;;;;;;;6.80;6.10;;;5.60;99.90;;;;;;5036400;28;20222;-64
2022/04/01 04:02:33;;;;;;;4.70;4.20;;;5.50;99.90;;;;;;5035106;28;20678;-65
2022/04/01 04:05:00;;;;;;;4.70;4.20;;;5.50;99.90;;;;;;5034875;28;20229;-65
2022/04/01 04:07:27;;;;;;;5.03;4.53;;;5.50;99.90;;;;;;5034622;28;20203;-65
2022/04/01 04:09:54;;;;;;;5.63;5.03;;;5.50;99.90;;;;;;5034155;28;20218;-65
2022/04/01 04:12:22;;;;;;;4.97;4.47;;;5.70;99.90;;;;;;5033771;28;20559;-65
2022/04/01 04:14:53;;;;;;;4.77;4.23;;;5.80;99.90;;;;;;5034813;28;20210;-65
2022/04/01 04:17:31;;;;;;;4.63;4.23;;;5.70;99.90;;;;;;5034619;28;20287;-65
2022/04/01 04:20:03;;;;;;;4.53;4.13;;;5.70;99.90;;;;;;5033598;28;20261;-64
2022/04/01 04:22:34;;;;;;;4.47;3.77;;;5.60;99.90;;;;;;5033769;28;20206;-64
2022/04/01 04:25:10;;;;;;;4.63;4.17;;;5.50;99.90;;;;;;5033589;28;20728;-64
2022/04/01 04:27:39;;;;;;;5.40;4.90;;;5.50;99.90;;;;;;5033734;28;20273;-65
2022/04/01 04:30:09;;;;;;;4.40;4.00;;;5.50;99.90;;;;;;5033136;28;20233;-65
2022/04/01 04:32:39;;;;;;;4.67;4.27;;;5.60;99.90;;;;;;5033189;28;20214;-64
2022/04/01 04:35:10;;;;;;;4.73;4.33;;;5.60;99.90;;;;;;5033303;28;20237;-65
2022/04/01 04:37:41;;;;;;;4.40;4.00;;;5.60;99.90;;;;;;5034020;28;20222;-65
2022/04/01 04:40:12;;;;;;;4.67;4.27;;;5.40;99.90;;;;;;5034395;28;20229;-65
2022/04/01 04:42:44;;;;;;;4.10;3.70;;;5.50;99.90;;;;;;5035163;28;20202;-64
2022/04/01 04:45:13;;;;;;;5.00;4.50;;;5.40;99.90;;;;;;5034122;28;20260;-64
2022/04/01 04:47:42;;;;;;;4.47;4.07;;;5.30;99.90;;;;;;5033875;28;20202;-64
2022/04/01 04:50:10;;;;;;;3.53;3.23;;;5.40;99.90;;;;;;5036358;28;20238;-64
2022/04/01 04:52:40;;;;;;;3.57;3.27;;;5.30;99.90;;;;;;5044992;28;20221;-64
2022/04/01 04:55:09;;;;;;;3.93;3.60;;;5.20;99.90;;;;;;5047533;28;20248;-64
2022/04/01 04:57:36;;;;;;;4.40;4.00;;;5.20;99.90;;;;;;5045719;28;20225;-65
2022/04/01 05:00:05;;;;;;;3.80;3.50;;;5.00;99.90;;;;;;5043492;28;20246;-64
2022/04/01 05:02:43;;;;;;;3.90;3.60;;;4.90;99.90;;;;;;5048545;28;20212;-65
2022/04/01 05:05:18;;;;;;;4.40;4.00;;;4.80;99.90;;;;;;5046943;28;20217;-65
2022/04/01 05:07:55;;;;;;;4.33;3.93;;;4.90;99.90;;;;;;5044176;28;20209;-65
2022/04/01 05:10:30;;;;;;;4.50;4.10;;;5.00;99.90;;;;;;5040470;28;20267;-65
2022/04/01 05:13:04;;;;;;;4.37;3.97;;;5.10;99.90;;;;;;5039238;28;20213;-65
2022/04/01 05:15:34;;;;;;;4.20;3.80;;;5.20;99.90;;;;;;5042741;28;20210;-65
2022/04/01 05:18:10;;;;;;;5.03;3.80;;;5.20;99.90;;;;;;5043339;28;20250;-64
2022/04/01 05:20:39;;;;;;;4.20;3.80;;;5.10;99.90;;;;;;5048929;28;20276;-65
2022/04/01 05:23:12;;;;;;;3.93;3.60;;;5.00;99.90;;;;;;5049020;28;20208;-64
2022/04/01 05:25:45;;;;;;;4.77;4.27;;;4.90;99.90;;;;;;5046012;28;20244;-65
2022/04/01 05:28:22;;;;;;;4.10;3.73;;;4.80;99.90;;;;;;5046113;28;20244;-65
2022/04/01 05:30:57;;;;;;;4.17;3.83;;;4.80;99.90;;;;;;5045156;28;20236;-64
2022/04/01 05:33:28;;;;;;;4.53;4.13;;;4.70;99.90;;;;;;5037855;28;20708;-64
2022/04/01 05:35:55;;;;;;;4.67;3.90;;;4.80;99.90;;;;;;5042275;28;20206;-64
2022/04/01 05:38:23;;;;;;;4.90;4.40;;;4.80;99.90;;;;;;5042533;28;20230;-64
2022/04/01 05:40:51;;;;;;;4.70;4.30;;;4.70;99.90;;;;;;5043072;28;20226;-64
2022/04/01 05:43:17;;;;;;;4.37;3.97;;;4.70;99.90;;;;;;5039392;28;20645;-64
2022/04/01 05:45:44;;;;;;;4.30;3.90;;;4.70;99.90;;;;;;5039740;28;20612;-63
2022/04/01 05:48:11;;;;;;;4.60;4.20;;;4.70;99.90;;;;;;5039215;28;20209;-63
2022/04/01 05:50:40;;;;;;;4.47;4.07;;;4.70;99.90;;;;;;5037939;28;20268;-64
2022/04/01 05:53:08;;;;;;;4.60;4.20;;;4.80;99.90;;;;;;5040458;28;20300;-63
2022/04/01 05:55:38;;;;;;;4.60;4.20;;;4.90;99.90;;;;;;5039675;28;20881;-63
2022/04/01 05:58:06;;;;;;;5.17;4.67;;;4.90;99.90;;;;;;5038526;28;20289;-63
2022/04/01 06:00:39;;;;;;;4.63;4.23;;;5.00;99.90;;;;;;5037847;28;20226;-63
2022/04/01 06:03:40;;;;;;;5.50;4.40;;;5.20;99.90;;;;;;5037075;28;20786;-63
2022/04/01 06:06:14;;;;;;;4.73;3.93;;;5.30;99.90;;;;;;5036623;28;20215;-63
2022/04/01 06:08:50;;;;;;;4.53;4.10;;;5.40;99.90;;;;;;5037826;28;20209;-63
2022/04/01 06:11:23;;;;;;;4.93;4.53;;;5.20;99.90;;;;;;5036638;28;20255;-63
2022/04/01 06:13:59;;;;;;;4.83;4.37;;;5.10;99.90;;;;;;5036488;28;20236;-63
2022/04/01 06:16:34;;;;;;;5.00;4.50;;;5.00;99.90;;;;;;5037935;28;20256;-63
2022/04/01 06:19:11;;;;;;;5.10;4.60;;;4.90;99.90;;;;;;5037298;28;20222;-63
2022/04/01 06:21:43;;;;;;;4.47;4.07;;;5.00;99.90;;;;;;5036611;28;20410;-63
2022/04/01 06:24:11;;;;;;;4.40;4.00;;;4.90;99.90;;;;;;5036862;28;20585;-63
2022/04/01 06:26:41;;;;;;;5.30;4.80;;;4.80;99.90;;;;;;5036530;28;20252;-63
2022/04/01 06:29:25;;;;;;;4.60;4.20;;;4.70;99.90;;;;;;5036496;28;20253;-64
2022/04/01 06:31:58;;;;;;;4.93;4.43;;;4.60;99.90;;;;;;5036134;28;20237;-63
2022/04/01 06:34:35;;;;;;;5.13;4.63;;;4.60;99.90;;;;;;5036792;28;20267;-63
2022/04/01 06:37:05;;;;;;;5.23;4.73;;;4.70;99.90;;;;;;5036671;28;20222;-63
2022/04/01 06:39:39;;;;;;;5.40;4.90;;;4.70;99.90;;;;;;5036872;28;20230;-63
2022/04/01 06:42:09;;;;;;;4.70;4.30;;;4.70;99.90;;;;;;5037719;28;20205;-63
2022/04/01 06:44:36;;;;;;;4.97;4.47;;;4.70;99.90;;;;;;5037812;28;20209;-63
2022/04/01 06:47:02;;;;;;;5.07;4.57;;;4.70;99.90;;;;;;5037877;28;20202;-63
2022/04/01 06:49:29;;;;;;;5.30;4.80;;;4.80;99.90;;;;;;5037396;28;20302;-63
2022/04/01 06:51:56;;;;;;;5.97;4.63;;;4.70;99.90;;;;;;5035437;28;20562;-63
2022/04/01 06:54:24;;;;;;;5.37;4.87;;;4.80;99.90;;;;;;5037813;28;20300;-63
2022/04/01 06:56:51;;;;;;;5.40;4.90;;;4.80;99.90;;;;;;5035943;28;20206;-64
2022/04/01 06:59:18;;;;;;;4.80;4.40;;;4.70;99.90;;;;;;5035608;28;20229;-63
2022/04/01 07:01:45;;;;;;;5.27;4.77;;;4.80;99.90;;;;;;5036278;28;20202;-64
2022/04/01 07:04:12;;;;;;;6.20;5.50;;;4.70;99.90;;;;;;5035782;28;20216;-63
2022/04/01 07:06:39;;;;;;;5.50;5.00;;;4.70;99.90;;;;;;5036226;28;20315;-63
2022/04/01 07:09:05;;;;;;;5.30;4.87;;;4.70;99.90;;;;;;5036117;28;20272;-64
2022/04/01 07:11:34;;;;;;;5.97;5.37;;;4.70;99.90;;;;;;5035524;28;20237;-63
2022/04/01 07:14:01;;;;;;;5.90;5.40;;;4.70;99.90;;;;;;5036401;28;20212;-64
2022/04/01 07:16:27;;;;;;;5.40;4.90;;;4.70;99.90;;;;;;5036633;28;20272;-64
2022/04/01 07:18:54;;;;;;;5.87;5.37;;;4.90;99.90;;;;;;5036001;28;20774;-63
2022/04/01 07:21:21;;;;;;;5.93;5.33;;;4.90;99.90;;;;;;5037546;28;20202;-63
2022/04/01 07:23:48;;;;;;;7.47;5.87;;;5.00;99.90;;;;;;5035630;28;20206;-63
2022/04/01 07:26:14;;;;;;;5.70;5.20;;;5.10;99.90;;;;;;5035496;28;20209;-59
2022/04/01 07:28:43;;;;;;;6.20;5.60;;;5.20;99.90;;;;;;5035211;28;20233;-59
2022/04/01 07:33:50;;;;;;;6.13;5.53;;;5.50;99.90;;;;;;5034855;28;20667;-60
2022/04/01 07:36:19;;;;;;;6.00;5.40;;;5.40;99.90;;;;;;5035496;28;20217;-59
2022/04/01 07:38:46;;;;;;;6.00;5.40;;;5.50;99.90;;;;;;5039628;28;20222;-60
2022/04/01 07:41:12;;;;;;;5.63;5.13;;;5.50;99.90;;;;;;5045327;28;20237;-60
2022/04/01 07:43:39;;;;;;;6.23;5.63;;;5.50;99.90;;;;;;5037926;28;20225;-60
2022/04/01 07:46:07;;;;;;;6.10;5.50;;;5.50;99.90;;;;;;5039486;28;20218;-59
2022/04/01 07:48:34;;;;;;;5.80;5.30;;;5.40;99.90;;;;;;5037371;28;20206;-59
2022/04/01 07:51:00;;;;;;;6.10;5.50;;;5.40;99.90;;;;;;5035398;28;20670;-60
2022/04/01 07:53:27;;;;;;;6.50;5.90;;;5.40;99.90;;;;;;5035381;28;20693;-60
2022/04/01 07:55:54;;;;;;;6.50;5.90;;;5.40;99.90;;;;;;5037916;28;20217;-60
2022/04/01 07:58:21;;;;;;;6.47;5.77;;;5.50;99.90;;;;;;5037106;28;20310;-60
2022/04/01 08:00:47;;;;;;;6.60;6.00;;;5.60;99.90;;;;;;5034319;28;20230;-60
2022/04/01 08:03:15;;;;;;;6.47;5.87;;;5.80;99.90;;;;;;5033547;28;20628;-60
2022/04/01 08:05:42;;;;;;;6.87;6.20;;;5.90;99.90;;;;;;5034662;28;20740;-60
2022/04/01 08:08:09;;;;;;;6.37;5.77;;;5.90;99.90;;;;;;5033867;28;20213;-60
2022/04/01 08:10:36;;;;;;;6.43;5.83;;;6.00;99.90;;;;;;5033310;28;20226;-61
2022/04/01 08:13:03;;;;;;;6.40;5.80;;;6.00;99.90;;;;;;5033947;28;20268;-60
2022/04/01 08:15:30;;;;;;;6.47;5.80;;;5.80;99.90;;;;;;5034534;28;20559;-60
2022/04/01 08:17:57;;;;;;;6.47;5.87;;;5.70;99.90;;;;;;5034321;28;20244;-60
2022/04/01 08:20:25;;;;;;;6.07;5.47;;;5.70;99.90;;;;;;5033499;28;20225;-61
2022/04/01 08:22:52;;;;;;;5.93;5.37;;;5.70;99.90;;;;;;5033432;28;20205;-60
2022/04/01 08:25:19;;;;;;;5.50;5.00;;;5.80;99.90;;;;;;5033392;28;20285;-60
2022/04/01 08:27:45;;;;;;;6.13;5.30;;;5.80;99.90;;;;;;5033089;28;20202;-60
2022/04/01 08:30:13;;;;;;;5.30;4.80;;;5.80;99.90;;;;;;5032689;28;20307;-60
2022/04/01 08:32:40;;;;;;;6.00;5.40;;;5.90;99.90;;;;;;5032469;28;20293;-61
2022/04/01 08:35:08;;;;;;;5.27;4.70;;;5.90;99.90;;;;;;5032587;28;20623;-60
2022/04/01 08:37:36;;;;;;;4.80;4.30;;;5.90;99.90;;;;;;5033236;28;20266;-60
2022/04/01 08:40:04;;;;;;;5.60;5.10;;;5.60;99.90;;;;;;5034469;28;20234;-60
2022/04/01 08:42:32;;;;;;;6.10;5.50;;;5.40;99.90;;;;;;5034467;28;20203;-61
2022/04/01 08:45:02;;;;;;;5.63;5.03;;;5.50;99.90;;;;;;5034242;28;20214;-61
2022/04/01 08:47:29;;;;;;;5.97;5.43;;;5.60;99.90;;;;;;5033988;28;20594;-61
2022/04/01 08:49:56;;;;;;;5.53;4.97;;;5.50;99.90;;;;;;5034076;28;20291;-61
2022/04/01 08:52:22;;;;;;;7.00;6.30;;;5.50;99.90;;;;;;5034870;28;20213;-60
2022/04/01 08:54:50;;;;;;;6.40;5.80;;;5.40;99.90;;;;;;5037501;28;20206;-60
2022/04/01 08:57:18;;;;;;;6.40;5.80;;;5.60;99.90;;;;;;5036372;28;20260;-60
2022/04/01 08:59:45;;;;;;;6.00;4.80;;;5.70;99.90;;;;;;5033179;28;20229;-59
2022/04/01 09:02:12;;;;;;;5.70;5.17;;;5.80;99.90;;;;;;5032824;28;20567;-60
2022/04/01 09:04:39;;;;;;;6.00;5.40;;;5.90;99.90;;;;;;5033818;28;20587;-61
2022/04/01 09:07:13;;;;;;;5.47;4.77;;;5.80;99.90;;;;;;5033138;28;20213;-60
2022/04/01 09:09:40;;;;;;;6.33;5.73;;;5.80;99.90;;;;;;5033535;28;20284;-60
2022/04/01 09:12:12;;;;;;;5.50;5.00;;;5.70;99.90;;;;;;5033862;28;20206;-61
2022/04/01 09:14:41;;;;;;;5.30;4.80;;;5.70;99.90;;;;;;5034088;28;20635;-60
2022/04/01 09:17:10;;;;;;;4.80;4.30;;;5.70;99.90;;;;;;5037070;28;20670;-60
2022/04/01 09:19:38;;;;;;;5.53;5.03;;;5.70;99.90;;;;;;5036719;28;20265;-62
2022/04/01 09:22:16;;;;;;;4.60;4.20;;;5.90;99.90;;;;;;5036670;28;20256;-60
2022/04/01 09:25:02;;;;;;;4.40;3.97;;;6.00;99.90;;;;;;5037023;28;20236;-60
2022/04/01 09:27:54;;;;;;;4.10;3.70;;;5.90;99.90;;;;;;5036077;28;20297;-61
2022/04/01 09:30:23;;;;;;;4.47;4.00;;;5.70;99.90;;;;;;5021870;28;20690;-60
2022/04/01 09:32:53;;;;;;;4.30;3.90;;;5.50;99.90;;;;;;5036721;28;20304;-61
2022/04/01 09:35:22;;;;;;;4.37;3.60;;;5.40;99.90;;;;;;5036959;28;20301;-61
2022/04/01 09:37:50;;;;;;;4.20;3.80;;;5.30;99.90;;;;;;5038932;28;20217;-61
2022/04/01 09:40:20;;;;;;;4.00;3.60;;;5.30;99.90;;;;;;5036800;28;20226;-61
2022/04/01 09:42:48;;;;;;;4.40;3.10;;;5.30;99.90;;;;;;5037800;28;20297;-61
2022/04/01 09:45:21;;;;;;;5.80;3.80;;;5.30;99.90;;;;;;5038235;28;20642;-61
2022/04/01 09:47:58;;;;;;;3.70;3.30;;;5.30;99.90;;;;;;5036996;28;20678;-61
2022/04/01 09:50:29;;;;;;;4.40;2.80;;;5.40;99.90;;;;;;5036897;28;20271;-61
2022/04/01 09:53:05;;;;;;;3.27;2.97;;;5.40;99.90;;;;;;5037232;28;20256;-60
2022/04/01 09:55:35;;;;;;;3.37;2.80;;;5.40;99.90;;;;;;5037888;28;20217;-61
2022/04/01 09:58:03;;;;;;;5.00;4.50;;;5.30;99.90;;;;;;5033726;28;20226;-61
2022/04/01 10:00:31;;;;;;;3.53;3.23;;;5.20;99.90;;;;;;5037053;28;20241;-61
2022/04/01 10:02:58;;;;;;;3.77;3.47;;;5.40;99.90;;;;;;5036529;28;20558;-61
2022/04/01 10:05:25;;;;;;;4.40;4.00;;;5.50;99.90;;;;;;5035834;28;20716;-61
2022/04/01 10:07:54;;;;;;;3.67;3.37;;;5.70;99.90;;;;;;5035767;28;20640;-63
2022/04/01 10:10:21;;;;;;;3.60;3.30;;;5.70;99.90;;;;;;5035936;28;20234;-61
2022/04/01 10:12:50;;;;;;;3.10;2.80;;;5.70;99.90;;;;;;5035291;28;20210;-62
2022/04/01 10:15:18;;;;;;;3.13;2.83;;;5.70;99.90;;;;;;5036405;28;20248;-61
2022/04/01 10:17:47;;;;;;;3.50;3.20;;;5.50;99.90;;;;;;5036199;28;20210;-62
2022/04/01 10:20:14;;;;;;;3.20;2.90;;;5.40;99.90;;;;;;5035756;28;20218;-64
2022/04/01 10:22:42;;;;;;;3.40;3.10;;;5.50;99.90;;;;;;5035701;28;20206;-63
2022/04/01 10:25:17;;;;;;;3.20;2.90;;;5.70;99.90;;;;;;5035783;28;20272;-63
2022/04/01 10:27:49;;;;;;;2.90;2.70;;;5.70;99.90;;;;;;5034838;28;20682;-63
2022/04/01 10:30:18;;;;;;;4.07;3.53;;;5.80;99.90;;;;;;5035456;28;20233;-64
2022/04/01 10:32:47;;;;;;;3.43;3.03;;;5.90;99.90;;;;;;5035774;28;20210;-64
2022/04/01 10:35:23;;;;;;;3.30;3.00;;;5.80;99.90;;;;;;5035697;28;20206;-65
2022/04/01 10:37:55;;;;;;;2.83;2.60;;;6.10;99.90;;;;;;5035105;28;20662;-60
2022/04/01 10:40:21;;;;;;;2.63;2.43;;;5.90;99.90;;;;;;5035036;28;20310;-60
2022/04/01 10:42:49;;;;;;;3.40;3.03;;;5.90;99.90;;;;;;5035815;28;20233;-59
2022/04/01 10:45:25;;;;;;;3.00;2.73;;;5.80;99.90;;;;;;5036457;28;20248;-62
2022/04/01 10:53:45;;;;;;;2.60;2.40;;;5.60;99.90;;;;;;5035858;28;20205;-60
2022/04/01 10:56:36;;;;;;;2.77;2.57;;;5.60;99.90;;;;;;5035544;28;20252;-60
2022/04/01 10:59:14;;;;;;;2.90;2.67;;;5.60;99.90;;;;;;5035362;28;20320;-60
2022/04/01 11:01:44;;;;;;;2.70;2.50;;;5.60;99.90;;;;;;5035572;28;20214;-59
2022/04/01 11:04:30;;;;;;;2.60;2.40;;;5.70;99.90;;;;;;5034990;28;20245;-60
2022/04/01 11:06:58;;;;;;;3.10;2.80;;;5.70;99.90;;;;;;5037071;28;20214;-59
2022/04/01 11:09:35;;;;;;;2.93;2.70;;;5.60;99.90;;;;;;5037126;28;20222;-60
2022/04/01 11:12:28;;;;;;;2.30;2.10;;;5.60;99.90;;;;;;5037657;28;20205;-60
2022/04/01 11:15:25;;;;;;;2.63;2.43;;;5.60;99.90;;;;;;5044149;28;20241;-60
2022/04/01 11:18:06;;;;;;;2.33;1.90;;;5.40;99.90;;;;;;5051877;28;20577;-60
2022/04/01 11:20:35;;;;;;;3.30;2.20;;;5.30;99.90;;;;;;5049622;28;20793;-60
2022/04/01 11:23:12;;;;;;;2.50;2.30;;;5.30;99.90;;;;;;5051558;28;20203;-60
2022/04/01 11:25:57;;;;;;;2.33;1.93;;;5.40;99.90;;;;;;5051112;28;20206;-60
2022/04/01 11:28:26;;;;;;;2.63;1.90;;;5.60;99.90;;;;;;5051392;28;20221;-62
2022/04/01 11:31:15;;;;;;;3.33;2.10;;;5.50;99.90;;;;;;5053452;28;20209;-60
2022/04/01 11:34:01;;;;;;;3.40;1.90;;;5.20;99.90;;;;;;5053150;28;20206;-61
2022/04/01 11:36:29;;;;;;;3.17;2.40;;;5.40;99.90;;;;;;5051723;28;20214;-60
2022/04/01 11:38:56;;;;;;;2.80;2.43;;;5.40;99.90;;;;;;5051556;28;20257;-60
2022/04/01 11:41:23;;;;;;;4.97;2.63;;;5.40;99.90;;;;;;5051356;28;20620;-61
2022/04/01 11:43:51;;;;;;;2.53;2.30;;;5.30;99.90;;;;;;5052185;28;20207;-60
2022/04/01 11:46:17;;;;;;;3.47;2.00;;;5.50;99.90;;;;;;5052288;28;20206;-60
2022/04/01 11:48:46;;;;;;;2.53;2.33;;;5.50;99.90;;;;;;5048480;28;20222;-61
2022/04/01 11:51:15;;;;;;;2.07;1.87;;;5.60;99.90;;;;;;5050910;28;20289;-61
2022/04/01 11:53:46;;;;;;;2.53;2.33;;;5.50;99.90;;;;;;5050353;28;20206;-60
2022/04/01 11:56:14;;;;;;;2.50;2.30;;;5.40;99.90;;;;;;5050492;28;20248;-61
2022/04/01 11:58:56;;;;;;;2.83;2.30;;;5.40;99.90;;;;;;5048913;28;20722;-60
2022/04/01 12:01:25;;;;;;;3.03;2.60;;;5.30;99.90;;;;;;5046065;28;20201;-60
2022/04/01 12:04:02;;;;;;;2.43;2.23;;;5.30;99.90;;;;;;5040236;28;20233;-66
2022/04/01 12:09:15;;;;;;;2.83;2.53;;;4.90;99.90;;;;;;5034085;28;20580;-61
2022/04/01 12:11:42;;;;;;;3.43;2.90;;;4.90;99.90;;;;;;5033500;28;20210;-61
2022/04/01 12:14:11;;;;;;;4.50;2.87;;;4.80;99.90;;;;;;5034290;28;20210;-61
2022/04/01 12:16:41;;;;;;;3.73;3.07;;;4.80;99.90;;;;;;5033932;28;20261;-62
2022/04/01 12:19:08;;;;;;;3.10;2.80;;;4.80;99.90;;;;;;5033782;28;20237;-61
2022/04/01 12:21:34;;;;;;;3.70;3.40;;;4.70;99.90;;;;;;5034113;28;20219;-61
2022/04/01 12:24:04;;;;;;;3.40;3.10;;;4.70;99.90;;;;;;5033665;28;20599;-61
2022/04/01 12:26:32;;;;;;;3.23;2.93;;;4.90;99.90;;;;;;5034802;28;20210;-61
2022/04/01 12:28:58;;;;;;;4.37;3.07;;;5.00;99.90;;;;;;5034407;28;20217;-61
2022/04/01 12:31:27;;;;;;;3.57;3.27;;;4.90;99.90;;;;;;5034939;28;20203;-63
2022/04/01 12:33:55;;;;;;;3.50;3.20;;;5.10;99.90;;;;;;5034256;28;20637;-62
2022/04/01 12:36:34;;;;;;;4.10;3.70;;;5.00;99.90;;;;;;5033913;28;20663;-63
2022/04/01 12:39:04;;;;;;;4.23;3.83;;;5.10;99.90;;;;;;5034218;28;20724;-64
2022/04/01 12:41:33;;;;;;;4.40;4.00;;;5.20;99.90;;;;;;5033843;28;20222;-63
2022/04/01 12:44:02;;;;;;;3.80;3.50;;;5.10;99.90;;;;;;5033393;28;20233;-63
2022/04/01 12:46:30;;;;;;;5.63;3.97;;;4.90;99.90;;;;;;5034526;28;20206;-64
2022/04/01 12:48:58;;;;;;;4.40;4.00;;;4.90;99.90;;;;;;5034026;28;20230;-64
2022/04/01 12:51:27;;;;;;;5.03;4.53;;;4.80;99.90;;;;;;5033854;28;20210;-65
2022/04/01 12:54:02;;;;;;;5.13;4.63;;;4.90;99.90;;;;;;5033273;28;20680;-63
2022/04/01 12:56:33;;;;;;;4.53;4.10;;;5.10;99.90;;;;;;5033742;28;20206;-63
2022/04/01 12:59:05;;;;;;;4.53;4.13;;;5.30;99.90;;;;;;5033444;28;20713;-64
2022/04/01 13:01:34;;;;;;;5.20;4.70;;;5.40;99.90;;;;;;5035079;28;20279;-65
2022/04/01 13:04:01;;;;;;;5.10;4.20;;;5.40;99.90;;;;;;5034968;28;20217;-66
2022/04/01 13:06:29;;;;;;;4.63;4.17;;;5.20;99.90;;;;;;5034771;28;20256;-66
2022/04/01 13:09:03;;;;;;;4.83;4.43;;;5.00;99.90;;;;;;5033596;28;20714;-66
2022/04/01 13:11:40;;;;;;;5.20;4.70;;;4.90;99.90;;;;;;5033504;28;20217;-65
2022/04/01 13:14:18;;;;;;;5.23;4.60;;;4.90;99.90;;;;;;5033623;28;20212;-65
2022/04/01 13:16:45;;;;;;;5.23;4.77;;;4.80;99.90;;;;;;5034225;28;20202;-63
2022/04/01 13:19:23;;;;;;;5.33;4.83;;;4.80;99.90;;;;;;5033344;28;20252;-65
2022/04/01 13:21:51;;;;;;;6.17;5.60;;;4.90;99.90;;;;;;5032692;28;20286;-63
2022/04/01 13:24:21;;;;;;;5.37;4.87;;;5.00;99.90;;;;;;5033033;28;20206;-64
2022/04/01 13:26:50;;;;;;;5.80;5.27;;;5.20;99.90;;;;;;5032461;28;20209;-65